TimeEDT,TemperatureF,Dew PointF,Humidity,Sea Level PressureIn,VisibilityMPH,Wind Direction,Wind SpeedMPH,Gust SpeedMPH,PrecipitationIn,Events,Conditions,WindDirDegrees,DateUTC
12:53 AM,32.0,28.0,85,30.27,10.0,SSW,5.8,-,N/A,,Clear,210,2013-10-26 04:53:00
1:53 AM,33.1,28.9,85,30.27,10.0,SSW,11.5,-,N/A,,Clear,210,2013-10-26 05:53:00
2:53 AM,32.0,28.0,85,30.27,10.0,SW,9.2,-,N/A,,Clear,220,2013-10-26 06:53:00
3:53 AM,32.0,28.0,85,30.25,10.0,SSW,8.1,-,N/A,,Clear,210,2013-10-26 07:53:00
4:53 AM,33.1,28.0,82,30.23,10.0,SW,11.5,-,N/A,,Clear,220,2013-10-26 08:53:00
5:53 AM,33.1,28.0,82,30.22,10.0,SSW,9.2,-,N/A,,Clear,210,2013-10-26 09:53:00
6:53 AM,32.0,27.0,82,30.20,10.0,SSW,8.1,-,N/A,,Clear,200,2013-10-26 10:53:00
7:53 AM,32.0,27.0,82,30.19,10.0,SSW,9.2,-,N/A,,Clear,200,2013-10-26 11:53:00
8:53 AM,35.1,28.0,76,30.18,10.0,SSW,9.2,-,N/A,,Clear,210,2013-10-26 12:53:00
9:53 AM,39.0,28.9,67,30.17,10.0,SW,12.7,-,N/A,,Clear,220,2013-10-26 13:53:00
10:53 AM,42.1,28.0,58,30.12,10.0,SSW,17.3,-,N/A,,Clear,210,2013-10-26 14:53:00
11:53 AM,46.0,27.0,47,30.09,10.0,SW,18.4,24.2,N/A,,Clear,220,2013-10-26 15:53:00
12:53 PM,48.0,27.0,44,30.06,10.0,SW,15.0,20.7,N/A,,Clear,230,2013-10-26 16:53:00
1:53 PM,50.0,26.1,39,30.01,10.0,SSW,11.5,-,N/A,,Clear,210,2013-10-26 17:53:00
2:53 PM,51.1,21.9,32,29.97,10.0,SW,16.1,-,N/A,,Clear,220,2013-10-26 18:53:00
3:53 PM,52.0,21.9,31,29.94,10.0,SSW,16.1,23.0,N/A,,Mostly Cloudy,200,2013-10-26 19:53:00
4:53 PM,51.1,21.0,31,29.94,10.0,WSW,10.4,-,N/A,,Overcast,240,2013-10-26 20:53:00
5:53 PM,50.0,21.0,32,29.92,10.0,SW,12.7,20.7,N/A,,Overcast,230,2013-10-26 21:53:00
6:53 PM,48.9,21.9,35,29.94,10.0,WSW,15.0,-,N/A,,Overcast,250,2013-10-26 22:53:00
7:53 PM,48.0,25.0,41,29.94,10.0,SW,13.8,19.6,N/A,,Overcast,220,2013-10-26 23:53:00
8:53 PM,48.0,25.0,41,29.94,10.0,West,18.4,28.8,N/A,,Overcast,270,2013-10-27 00:53:00
9:53 PM,46.9,27.0,46,29.95,10.0,West,12.7,27.6,N/A,,Overcast,270,2013-10-27 01:53:00
10:53 PM,46.9,28.9,50,29.95,10.0,West,13.8,-,N/A,,Overcast,260,2013-10-27 02:53:00
11:53 PM,46.0,30.0,54,29.96,10.0,West,13.8,-,N/A,,Overcast,270,2013-10-27 03:53:00